Weather at South Bend Regional Airport

Public forecast

Using degrees Fahrenheit for public forecast. Weather courtesy of forecast.io.

Current aviation weather report (METAR) for South Bend Regional Airport

Retrieved 2021/01/17 17:54 UTC (39 minutes ago):

KSBN 171754Z 25007KT 1SM R27L/5500VP6000FT -SN BR SCT008 BKN013 OVC028 00/M02 A2969 RMK AO2 SLP062 P0001 60004 T00001022 10000 21006 56012

Aviation forecast (TAF) for South Bend Regional Airport

Retrieved 2021/01/17 18:22 UTC (11 minutes ago):

TAF KSBN 171720Z 1718/1818 24009KT 3SM -SN BR BKN007 OVC030 TEMPO 1718/1722 1SM -SN BR OVC005 FM180100 27006KT 3SM -SN BR OVC010 FM180700 27006KT P6SM VCSH OVC012 FM181200 26008KT P6SM OVC015